createdAt,value
2022-09-26T00:00:28.038Z,392.70
2022-09-26T00:01:28.070Z,372.80
2022-09-26T00:02:27.985Z,360.30
2022-09-26T00:03:27.970Z,361.10
2022-09-26T00:04:32.377Z,357.90
2022-09-26T00:05:28.989Z,363.70
2022-09-26T00:06:27.932Z,375.00
2022-09-26T00:07:27.930Z,370.40
2022-09-26T00:08:27.907Z,376.50
2022-09-26T00:09:27.889Z,385.50
2022-09-26T00:10:27.907Z,375.60
2022-09-26T00:11:27.889Z,354.90
2022-09-26T00:12:27.855Z,347.70
2022-09-26T00:13:27.849Z,353.40
2022-09-26T00:14:27.845Z,343.60
2022-09-26T00:15:27.886Z,342.50
2022-09-26T00:16:27.871Z,342.40
2022-09-26T00:17:27.830Z,345.80
2022-09-26T00:18:27.794Z,347.60
2022-09-26T00:19:27.782Z,352.20
2022-09-26T00:20:27.821Z,339.20
2022-09-26T00:21:27.767Z,337.10
2022-09-26T00:22:27.744Z,338.60
2022-09-26T00:23:27.751Z,334.30
2022-09-26T00:24:27.733Z,336.10
2022-09-26T00:25:27.764Z,354.80
2022-09-26T00:26:27.724Z,338.20
2022-09-26T00:27:27.688Z,341.30
2022-09-26T00:28:27.683Z,337.30
2022-09-26T00:29:27.681Z,345.70
2022-09-26T00:30:27.748Z,334.80
2022-09-26T00:31:27.661Z,319.40
2022-09-26T00:32:27.632Z,317.00
2022-09-26T00:33:27.621Z,308.60
2022-09-26T00:34:27.655Z,289.90
2022-09-26T00:35:27.651Z,287.30
2022-09-26T00:36:37.429Z,279.70
2022-09-26T00:37:28.618Z,283.70
2022-09-26T00:38:27.567Z,287.40
2022-09-26T00:39:27.548Z,285.00
2022-09-26T00:40:27.619Z,290.00
2022-09-26T00:41:27.538Z,289.10
2022-09-26T00:42:27.525Z,292.60
2022-09-26T00:43:27.515Z,296.80
2022-09-26T00:44:27.523Z,289.20
2022-09-26T00:45:27.536Z,289.80
2022-09-26T00:46:27.531Z,288.10
2022-09-26T00:47:27.467Z,277.90
2022-09-26T00:48:27.462Z,284.50
2022-09-26T00:49:27.455Z,284.60
2022-09-26T00:50:27.479Z,284.30
2022-09-26T00:51:27.421Z,281.20
2022-09-26T00:52:27.417Z,279.20
2022-09-26T00:53:27.406Z,281.30
2022-09-26T00:54:27.393Z,296.70
2022-09-26T00:55:27.413Z,318.50
2022-09-26T00:56:27.371Z,332.10
2022-09-26T00:57:27.356Z,323.70
2022-09-26T00:58:27.349Z,329.00
2022-09-26T00:59:27.340Z,332.60
2022-09-26T01:00:27.385Z,332.40
2022-09-26T01:01:27.401Z,327.50
2022-09-26T01:02:27.354Z,322.30
2022-09-26T01:03:27.286Z,326.00
2022-09-26T01:04:27.267Z,324.10
2022-09-26T01:05:27.317Z,312.70
2022-09-26T01:06:27.250Z,309.80
2022-09-26T01:07:27.248Z,302.20
2022-09-26T01:08:27.221Z,296.80
2022-09-26T01:09:27.213Z,258.10
2022-09-26T01:10:27.230Z,259.80
2022-09-26T01:11:27.183Z,255.50
2022-09-26T01:12:27.172Z,269.10
2022-09-26T01:13:27.171Z,271.30
2022-09-26T01:14:27.181Z,273.10
2022-09-26T01:15:27.229Z,266.80
2022-09-26T01:16:27.229Z,261.80
2022-09-26T01:17:27.222Z,255.60
2022-09-26T01:18:27.106Z,262.10
2022-09-26T01:19:27.101Z,254.80
2022-09-26T01:20:27.119Z,267.60
2022-09-26T01:21:27.070Z,261.00
2022-09-26T01:22:27.062Z,265.20
2022-09-26T01:23:27.055Z,268.50
2022-09-26T01:24:27.036Z,266.90
2022-09-26T01:25:27.060Z,262.80
2022-09-26T01:26:27.010Z,270.20
2022-09-26T01:27:27.004Z,267.70
2022-09-26T01:28:26.996Z,276.50
2022-09-26T01:29:26.999Z,270.20
2022-09-26T01:30:27.031Z,268.00
2022-09-26T01:31:26.993Z,271.20
2022-09-26T01:32:26.943Z,270.50
2022-09-26T01:33:26.941Z,265.20
2022-09-26T01:34:26.921Z,272.70
2022-09-26T01:35:26.952Z,274.80
2022-09-26T01:36:26.899Z,280.20
2022-09-26T01:37:26.896Z,288.40
2022-09-26T01:38:26.885Z,302.90
2022-09-26T01:39:26.872Z,312.90
2022-09-26T01:40:26.928Z,329.30
2022-09-26T01:41:26.848Z,332.80
2022-09-26T01:42:26.834Z,327.40
2022-09-26T01:43:26.815Z,322.70
2022-09-26T01:44:26.799Z,335.90
2022-09-26T01:45:26.826Z,335.30
2022-09-26T01:46:26.924Z,351.70
2022-09-26T01:47:26.777Z,348.00
2022-09-26T01:48:26.756Z,353.20
2022-09-26T01:49:26.765Z,355.40
2022-09-26T01:50:26.781Z,354.80
2022-09-26T01:51:26.734Z,353.20
2022-09-26T01:52:26.714Z,356.70
2022-09-26T01:53:26.712Z,364.10
2022-09-26T01:54:26.691Z,360.50
2022-09-26T01:55:26.726Z,361.80
2022-09-26T01:56:26.682Z,362.20
2022-09-26T01:57:26.667Z,369.30
2022-09-26T01:58:26.641Z,367.20
2022-09-26T01:59:26.636Z,356.70
2022-09-26T02:00:26.674Z,352.10
2022-09-26T02:01:26.694Z,359.80
2022-09-26T02:02:26.626Z,356.00
2022-09-26T02:03:26.599Z,366.10
2022-09-26T02:04:26.587Z,361.00
2022-09-26T02:05:26.606Z,365.50
2022-09-26T02:06:26.551Z,350.70
2022-09-26T02:07:26.551Z,330.70
2022-09-26T02:08:26.539Z,318.20
2022-09-26T02:09:26.534Z,310.30
2022-09-26T02:10:26.553Z,313.90
2022-09-26T02:11:26.503Z,319.30
2022-09-26T02:12:26.484Z,310.90
2022-09-26T02:13:26.475Z,310.10
2022-09-26T02:14:26.470Z,299.10
2022-09-26T02:15:26.484Z,286.20
2022-09-26T02:16:26.472Z,282.10
2022-09-26T02:17:26.428Z,275.20
2022-09-26T02:18:26.407Z,272.50
2022-09-26T02:19:26.417Z,272.80
2022-09-26T02:20:26.434Z,351.20
2022-09-26T02:21:26.389Z,396.50
2022-09-26T02:22:26.366Z,391.30
2022-09-26T02:23:26.357Z,339.20
2022-09-26T02:24:26.348Z,346.80
2022-09-26T02:25:26.388Z,358.50
2022-09-26T02:26:26.330Z,367.90
2022-09-26T02:27:26.321Z,424.70
2022-09-26T02:28:26.303Z,475.50
2022-09-26T02:29:26.286Z,477.60
2022-09-26T02:30:26.317Z,478.10
2022-09-26T02:31:26.326Z,487.40
2022-09-26T02:32:26.257Z,493.90
2022-09-26T02:33:26.256Z,496.70
2022-09-26T02:34:26.237Z,493.90
2022-09-26T02:35:26.264Z,488.60
2022-09-26T02:36:26.227Z,474.40
2022-09-26T02:37:26.205Z,455.10
2022-09-26T02:38:26.191Z,432.80
2022-09-26T02:39:26.192Z,413.40
2022-09-26T02:40:26.286Z,387.40
2022-09-26T02:41:26.177Z,378.50
2022-09-26T02:42:26.158Z,373.20
2022-09-26T02:43:26.140Z,352.40
2022-09-26T02:44:26.132Z,350.00
2022-09-26T02:45:26.224Z,365.00
2022-09-26T02:46:26.129Z,361.80
2022-09-26T02:47:26.104Z,360.30
2022-09-26T02:48:26.082Z,376.90
2022-09-26T02:49:26.069Z,369.20
2022-09-26T02:50:26.081Z,384.50
2022-09-26T02:51:26.053Z,387.50
2022-09-26T02:52:26.028Z,377.50
2022-09-26T02:53:26.031Z,392.10
2022-09-26T02:54:26.029Z,388.30
2022-09-26T02:55:26.049Z,385.00
2022-09-26T02:56:25.986Z,387.90
2022-09-26T02:57:25.992Z,373.00
2022-09-26T02:58:25.966Z,375.10
2022-09-26T02:59:25.960Z,381.30
2022-09-26T03:00:25.991Z,371.00
2022-09-26T03:01:25.986Z,371.40
2022-09-26T03:02:25.929Z,377.30
2022-09-26T03:03:25.957Z,370.30
2022-09-26T03:04:25.946Z,365.50
2022-09-26T03:05:25.925Z,370.90
2022-09-26T03:06:25.879Z,362.70
2022-09-26T03:07:25.866Z,367.90
2022-09-26T03:08:25.858Z,357.80
2022-09-26T03:09:25.833Z,365.30
2022-09-26T03:10:25.860Z,359.50
2022-09-26T03:11:25.824Z,367.70
2022-09-26T03:12:25.803Z,359.20
2022-09-26T03:13:25.796Z,368.90
2022-09-26T03:14:25.794Z,362.90
2022-09-26T03:15:25.802Z,370.80
2022-09-26T03:16:25.820Z,383.70
2022-09-26T03:17:25.744Z,389.90
2022-09-26T03:18:25.732Z,405.50
2022-09-26T03:19:25.738Z,398.20
2022-09-26T03:20:25.748Z,413.30
2022-09-26T03:21:25.694Z,412.70
2022-09-26T03:22:25.678Z,410.40
2022-09-26T03:23:25.684Z,408.80
2022-09-26T03:24:25.659Z,415.90
2022-09-26T03:25:25.696Z,414.00
2022-09-26T03:26:25.647Z,409.30
2022-09-26T03:27:25.635Z,409.00
2022-09-26T03:28:25.623Z,413.00
2022-09-26T03:29:25.621Z,409.20
2022-09-26T03:30:25.649Z,406.70
2022-09-26T03:31:25.697Z,407.90
2022-09-26T03:32:25.582Z,405.50
2022-09-26T03:33:25.566Z,407.30
2022-09-26T03:34:25.565Z,398.60
2022-09-26T03:35:25.589Z,404.90
2022-09-26T03:36:25.527Z,399.10
2022-09-26T03:37:25.527Z,406.70
2022-09-26T03:38:25.508Z,391.40
2022-09-26T03:39:25.515Z,385.30
2022-09-26T03:40:25.587Z,380.40
2022-09-26T03:41:25.488Z,368.60
2022-09-26T03:42:25.474Z,363.30
2022-09-26T03:43:25.472Z,356.00
2022-09-26T03:44:25.452Z,343.70
2022-09-26T03:45:25.535Z,349.50
2022-09-26T03:46:25.432Z,353.60
2022-09-26T03:47:25.405Z,343.40
2022-09-26T03:48:25.410Z,336.50
2022-09-26T03:49:25.379Z,325.60
2022-09-26T03:50:25.418Z,323.10
2022-09-26T03:51:25.366Z,317.90
2022-09-26T03:52:25.380Z,314.20
2022-09-26T03:53:25.355Z,321.30
2022-09-26T03:54:25.336Z,315.20
2022-09-26T03:55:25.347Z,312.90
2022-09-26T03:56:25.314Z,310.30
2022-09-26T03:57:25.286Z,317.30
2022-09-26T03:58:25.278Z,305.60
2022-09-26T03:59:25.289Z,292.70
2022-09-26T04:00:25.307Z,295.30
2022-09-26T04:01:25.341Z,282.80
2022-09-26T04:02:25.349Z,270.10
2022-09-26T04:03:25.242Z,268.80
2022-09-26T04:04:25.232Z,273.40
2022-09-26T04:05:25.236Z,274.50
2022-09-26T04:06:25.197Z,260.30
2022-09-26T04:07:25.183Z,274.90
2022-09-26T04:08:25.182Z,275.50
2022-09-26T04:09:25.959Z,265.30
2022-09-26T04:10:25.199Z,267.90
2022-09-26T04:11:25.139Z,269.00
2022-09-26T04:12:25.130Z,273.40
2022-09-26T04:13:50.003Z,269.50
2022-09-26T04:14:26.106Z,272.40
2022-09-26T04:15:25.137Z,268.40
2022-09-26T04:16:25.160Z,271.30
2022-09-26T04:17:25.083Z,274.30
2022-09-26T04:18:25.080Z,276.20
2022-09-26T04:19:25.051Z,278.40
2022-09-26T04:20:25.040Z,280.00
2022-09-26T04:21:25.059Z,271.10
2022-09-26T04:22:25.027Z,270.90
2022-09-26T04:23:25.000Z,272.00
2022-09-26T04:24:25.021Z,272.00
2022-09-26T04:25:24.981Z,276.30
2022-09-26T04:26:25.017Z,284.90
2022-09-26T04:27:24.949Z,276.50
2022-09-26T04:28:24.946Z,281.10
2022-09-26T04:29:24.923Z,274.50
2022-09-26T04:30:24.953Z,273.10
2022-09-26T04:31:24.962Z,277.30
2022-09-26T04:32:24.925Z,285.20
2022-09-26T04:33:24.894Z,273.60
2022-09-26T04:34:27.208Z,277.50
2022-09-26T04:35:24.906Z,278.30
2022-09-26T04:36:24.864Z,272.40
2022-09-26T04:37:24.846Z,275.10
2022-09-26T04:38:24.842Z,267.30
2022-09-26T04:39:24.815Z,278.30
2022-09-26T04:40:24.908Z,272.30
2022-09-26T04:41:24.817Z,274.70
2022-09-26T04:42:24.793Z,263.80
2022-09-26T04:43:24.767Z,267.70
2022-09-26T04:44:24.777Z,262.50
2022-09-26T04:45:24.828Z,259.70
2022-09-26T04:46:29.720Z,260.00
2022-09-26T04:47:25.730Z,262.50
2022-09-26T04:48:24.711Z,265.60
2022-09-26T04:49:24.700Z,268.10
2022-09-26T04:50:24.731Z,274.60
2022-09-26T04:51:24.682Z,270.20
2022-09-26T04:52:24.671Z,274.50
2022-09-26T04:53:24.673Z,270.10
2022-09-26T04:54:24.647Z,274.80
2022-09-26T04:55:24.670Z,272.80
2022-09-26T04:56:24.631Z,268.90
2022-09-26T04:57:24.606Z,266.90
2022-09-26T04:58:24.599Z,276.00
2022-09-26T04:59:24.592Z,279.90
2022-09-26T05:00:24.622Z,274.00
2022-09-26T05:01:24.664Z,279.40
2022-09-26T05:02:24.631Z,273.30
2022-09-26T05:03:24.534Z,275.20
2022-09-26T05:04:27.603Z,276.30
2022-09-26T05:05:24.572Z,273.30
2022-09-26T05:06:24.527Z,275.60
2022-09-26T05:07:24.514Z,271.40
2022-09-26T05:08:24.487Z,263.70
2022-09-26T05:09:24.472Z,268.30
2022-09-26T05:10:24.506Z,268.50
2022-09-26T05:11:24.462Z,259.70
2022-09-26T05:12:24.440Z,270.90
2022-09-26T05:13:24.442Z,260.40
2022-09-26T05:14:24.426Z,264.40
2022-09-26T05:15:24.449Z,258.30
2022-09-26T05:16:24.424Z,259.00
2022-09-26T05:17:24.395Z,257.20
2022-09-26T05:18:24.392Z,254.70
2022-09-26T05:19:24.368Z,253.60
2022-09-26T05:20:24.392Z,251.30
2022-09-26T05:21:24.333Z,243.40
2022-09-26T05:22:24.336Z,255.10
2022-09-26T05:23:24.317Z,251.10
2022-09-26T05:24:24.312Z,247.40
2022-09-26T05:25:24.326Z,251.10
2022-09-26T05:26:24.291Z,251.40
2022-09-26T05:27:24.267Z,257.30
2022-09-26T05:28:24.281Z,252.10
2022-09-26T05:29:24.256Z,257.50
2022-09-26T05:30:24.274Z,252.60
2022-09-26T05:31:24.277Z,258.70
2022-09-26T05:32:24.228Z,251.00
2022-09-26T05:33:24.204Z,254.10
2022-09-26T05:34:24.202Z,260.10
2022-09-26T05:35:24.210Z,255.40
2022-09-26T05:36:24.166Z,251.40
2022-09-26T05:37:24.146Z,253.00
2022-09-26T05:38:24.146Z,245.90
2022-09-26T05:39:24.139Z,254.50
2022-09-26T05:40:24.284Z,244.50
2022-09-26T05:41:24.119Z,256.60
2022-09-26T05:42:24.146Z,251.30
2022-09-26T05:43:24.098Z,258.00
2022-09-26T05:44:24.086Z,259.10
2022-09-26T05:45:24.104Z,257.50
2022-09-26T05:46:24.138Z,257.00
2022-09-26T05:47:24.069Z,260.90
2022-09-26T05:48:24.039Z,268.50
2022-09-26T05:49:24.029Z,258.50
2022-09-26T05:50:24.055Z,259.20
2022-09-26T05:51:23.997Z,257.20
2022-09-26T05:52:23.987Z,258.10
2022-09-26T05:53:23.973Z,256.60
2022-09-26T05:54:23.960Z,263.00
2022-09-26T05:55:23.954Z,258.70
2022-09-26T05:56:23.981Z,249.90
2022-09-26T05:57:23.942Z,252.20
2022-09-26T05:58:23.920Z,245.20
2022-09-26T05:59:23.913Z,233.20
2022-09-26T06:00:23.901Z,237.80
2022-09-26T06:01:23.971Z,226.90
2022-09-26T06:02:23.913Z,228.20
2022-09-26T06:03:23.858Z,213.60
2022-09-26T06:04:23.861Z,209.70
2022-09-26T06:05:23.840Z,200.50
2022-09-26T06:06:23.872Z,190.20
2022-09-26T06:07:23.816Z,181.80
2022-09-26T06:08:23.820Z,171.30
2022-09-26T06:09:23.792Z,178.70
2022-09-26T06:10:23.818Z,167.00
2022-09-26T06:11:23.792Z,178.60
2022-09-26T06:12:23.778Z,176.90
2022-09-26T06:13:23.759Z,179.50
2022-09-26T06:14:23.748Z,175.90
2022-09-26T06:15:23.768Z,185.60
2022-09-26T06:16:23.774Z,179.90
2022-09-26T06:17:23.705Z,180.90
2022-09-26T06:18:23.712Z,181.50
2022-09-26T06:19:23.798Z,177.20
2022-09-26T06:20:23.705Z,178.50
2022-09-26T06:21:23.674Z,182.80
2022-09-26T06:22:23.654Z,187.20
2022-09-26T06:23:23.656Z,189.00
2022-09-26T06:24:23.631Z,190.00
2022-09-26T06:25:23.686Z,193.10
2022-09-26T06:26:23.660Z,196.40
2022-09-26T06:27:23.605Z,193.60
2022-09-26T06:28:23.581Z,199.50
2022-09-26T06:29:23.580Z,197.30
2022-09-26T06:30:23.618Z,189.60
2022-09-26T06:31:23.603Z,183.90
2022-09-26T06:32:23.556Z,185.10
2022-09-26T06:33:23.542Z,189.50
2022-09-26T06:34:23.537Z,199.50
2022-09-26T06:35:23.552Z,200.80
2022-09-26T06:36:23.521Z,205.50
2022-09-26T06:37:23.481Z,206.30
2022-09-26T06:38:23.483Z,207.90
2022-09-26T06:39:23.449Z,217.00
2022-09-26T06:40:23.506Z,224.30
2022-09-26T06:41:23.429Z,229.80
2022-09-26T06:42:23.422Z,234.10
2022-09-26T06:43:23.453Z,233.30
2022-09-26T06:44:23.420Z,237.10
2022-09-26T06:45:23.433Z,234.50
2022-09-26T06:46:23.459Z,235.60
2022-09-26T06:47:23.386Z,225.80
2022-09-26T06:48:24.648Z,203.10
2022-09-26T06:49:23.352Z,205.90
2022-09-26T06:50:23.390Z,204.20
2022-09-26T06:51:23.327Z,194.40
2022-09-26T06:52:23.315Z,186.60
2022-09-26T06:53:23.311Z,185.50
2022-09-26T06:54:23.290Z,169.70
2022-09-26T06:55:23.320Z,177.40
2022-09-26T06:56:23.267Z,172.40
2022-09-26T06:57:23.267Z,332.30
2022-09-26T06:58:23.251Z,266.90
2022-09-26T06:59:23.224Z,213.90
2022-09-26T07:00:23.295Z,300.30
2022-09-26T07:01:23.435Z,297.20
2022-09-26T07:02:23.302Z,119.30
2022-09-26T07:03:23.194Z,171.30
2022-09-26T07:04:23.190Z,164.20
2022-09-26T07:05:23.214Z,43.90
2022-09-26T07:06:23.150Z,149.20
2022-09-26T07:07:23.134Z,49.80
2022-09-26T07:08:37.429Z,160.20
2022-09-26T07:09:24.134Z,85.60
2022-09-26T07:10:23.182Z,236.80
2022-09-26T07:12:02.690Z,185.50
2022-09-26T07:12:24.091Z,284.80
2022-09-26T07:13:23.070Z,320.60
2022-09-26T07:14:23.042Z,113.90
2022-09-26T07:15:23.063Z,375.90
2022-09-26T07:16:23.165Z,89.40
2022-09-26T07:17:23.026Z,450.90
2022-09-26T07:18:23.037Z,133.40
2022-09-26T07:19:23.012Z,344.80
2022-09-26T07:20:23.034Z,155.20
2022-09-26T07:21:22.987Z,332.20
2022-09-26T07:22:22.981Z,281.70
2022-09-26T07:23:22.968Z,351.10
2022-09-26T07:24:22.954Z,192.70
2022-09-26T07:25:22.978Z,369.90
2022-09-26T07:26:22.937Z,53.20
2022-09-26T07:27:22.933Z,289.90
2022-09-26T07:28:22.911Z,368.40
2022-09-26T07:29:22.904Z,73.90
2022-09-26T07:30:22.909Z,333.30
2022-09-26T07:31:22.886Z,52.40
2022-09-26T07:32:22.852Z,55.70
2022-09-26T07:33:22.857Z,252.10
2022-09-26T07:34:22.851Z,44.70
2022-09-26T07:35:22.884Z,318.90
2022-09-26T07:36:22.827Z,36.50
2022-09-26T07:37:22.811Z,307.10
2022-09-26T07:38:22.801Z,33.40
2022-09-26T07:39:22.793Z,36.70
2022-09-26T07:40:22.874Z,216.30
2022-09-26T07:41:22.776Z,171.90
2022-09-26T07:42:22.747Z,36.70
2022-09-26T07:43:42.486Z,252.90
2022-09-26T07:45:28.719Z,280.80
2022-09-26T07:45:29.487Z,157.40
2022-09-26T07:46:23.724Z,102.80
2022-09-26T07:47:22.686Z,325.40
2022-09-26T07:48:22.699Z,36.50
2022-09-26T07:49:22.666Z,167.50
2022-09-26T07:50:22.838Z,276.00
2022-09-26T07:51:22.659Z,216.20
2022-09-26T07:52:22.678Z,105.00
2022-09-26T07:53:22.625Z,252.60
2022-09-26T07:54:22.609Z,39.90
2022-09-26T07:55:22.630Z,213.80
2022-09-26T07:56:22.585Z,132.90
2022-09-26T07:57:22.587Z,42.10
2022-09-26T07:58:22.590Z,131.40
2022-09-26T07:59:22.562Z,85.90
2022-09-26T08:00:22.647Z,25.40
2022-09-26T08:01:22.618Z,188.20
2022-09-26T08:02:22.745Z,30.70
2022-09-26T08:03:22.672Z,107.70
2022-09-26T08:04:22.506Z,140.70
2022-09-26T08:05:22.539Z,33.80
2022-09-26T08:06:22.498Z,54.20
2022-09-26T08:07:22.476Z,103.00
2022-09-26T08:08:22.452Z,91.00
2022-09-26T08:09:22.455Z,149.90
2022-09-26T08:10:22.545Z,209.60
2022-09-26T08:11:22.471Z,23.00
2022-09-26T08:12:22.408Z,139.40
2022-09-26T08:13:22.415Z,110.80
2022-09-26T08:14:22.366Z,38.10
2022-09-26T08:15:22.406Z,178.90
2022-09-26T08:16:22.398Z,62.60
2022-09-26T08:17:22.371Z,106.20
2022-09-26T08:18:22.336Z,473.90
2022-09-26T08:19:22.330Z,1257.50
2022-09-26T08:20:22.349Z,1999.90
2022-09-26T08:21:22.323Z,1999.90
2022-09-26T08:22:22.288Z,1999.90
2022-09-26T08:23:22.296Z,1999.90
2022-09-26T08:24:22.275Z,1999.90
2022-09-26T08:25:22.291Z,1999.90
2022-09-26T08:26:22.249Z,1999.90
2022-09-26T08:27:22.246Z,1999.90
2022-09-26T08:28:22.233Z,1999.90
2022-09-26T08:29:22.223Z,1999.90
2022-09-26T08:30:22.240Z,1999.90
2022-09-26T08:31:22.246Z,1999.90
2022-09-26T08:32:22.186Z,1999.90
2022-09-26T08:33:22.182Z,1999.90
2022-09-26T08:34:25.258Z,1999.90
2022-09-26T08:35:22.204Z,1999.90
2022-09-26T08:36:22.144Z,1999.90
2022-09-26T08:37:22.197Z,1999.90
2022-09-26T08:38:22.099Z,1999.90
2022-09-26T08:39:22.145Z,1999.90
2022-09-26T08:40:22.192Z,1999.90
2022-09-26T08:41:22.118Z,1999.90
2022-09-26T08:42:22.086Z,1576.40
2022-09-26T08:43:22.080Z,976.40
2022-09-26T08:44:22.039Z,142.50
2022-09-26T08:45:22.059Z,22.00
2022-09-26T08:46:22.075Z,21.10
2022-09-26T08:47:22.010Z,18.50
2022-09-26T08:48:22.025Z,20.00
2022-09-26T08:49:22.009Z,1999.90
2022-09-26T08:50:22.005Z,1356.20
2022-09-26T08:51:26.783Z,120.70
2022-09-26T08:52:22.955Z,155.30
2022-09-26T08:53:21.951Z,25.60
2022-09-26T08:54:21.930Z,22.30
2022-09-26T08:55:21.960Z,13.00
2022-09-26T08:56:21.902Z,13.00
2022-09-26T08:57:21.910Z,11.60
2022-09-26T08:58:26.482Z,10.90
2022-09-26T08:59:22.871Z,12.50
2022-09-26T09:00:21.917Z,15.30
2022-09-26T09:01:21.935Z,17.20
2022-09-26T09:02:22.043Z,15.20
2022-09-26T09:03:21.829Z,12.60
2022-09-26T09:04:21.829Z,13.70
2022-09-26T09:05:21.855Z,10.40
2022-09-26T09:06:21.818Z,9.50
2022-09-26T09:07:21.785Z,8.90
2022-09-26T09:08:21.780Z,8.60
2022-09-26T09:09:21.779Z,8.70
2022-09-26T09:10:21.794Z,8.60
2022-09-26T09:11:21.758Z,9.20
2022-09-26T09:12:24.350Z,7.80
2022-09-26T09:13:21.738Z,9.00
2022-09-26T09:14:21.709Z,9.40
2022-09-26T09:15:25.721Z,8.90
2022-09-26T09:16:21.718Z,8.40
2022-09-26T09:17:21.652Z,7.60
2022-09-26T09:18:21.657Z,7.80
2022-09-26T09:19:21.679Z,12.10
2022-09-26T09:20:21.687Z,12.10
2022-09-26T09:21:21.621Z,12.00
2022-09-26T09:22:21.619Z,10.30
2022-09-26T09:23:21.622Z,9.90
2022-09-26T09:24:21.603Z,9.50
2022-09-26T09:25:21.617Z,8.90
2022-09-26T09:28:22.563Z,10.30
2022-09-26T09:29:21.553Z,10.70
2022-09-26T09:30:21.605Z,11.70
2022-09-26T09:31:21.625Z,16.30
2022-09-26T09:32:21.500Z,20.20
2022-09-26T09:33:21.487Z,19.10
2022-09-26T09:34:21.496Z,18.20
2022-09-26T09:35:21.531Z,14.60
2022-09-26T09:36:21.462Z,226.30
2022-09-26T09:37:21.459Z,1999.90
2022-09-26T09:38:21.447Z,370.40
2022-09-26T09:39:21.423Z,702.00
2022-09-26T09:40:21.495Z,30.00
2022-09-26T09:41:21.414Z,14.70
2022-09-26T09:42:21.389Z,15.00
2022-09-26T09:43:21.390Z,14.30
2022-09-26T09:44:21.375Z,23.20
2022-09-26T09:45:21.406Z,12.70
2022-09-26T09:46:21.363Z,13.10
2022-09-26T09:47:21.324Z,10.00
2022-09-26T09:48:21.315Z,11.40
2022-09-26T09:49:21.308Z,10.00
2022-09-26T09:50:21.411Z,8.80
2022-09-26T09:51:21.303Z,9.40
2022-09-26T09:52:21.300Z,9.50
2022-09-26T09:53:21.275Z,10.00
2022-09-26T09:54:21.267Z,9.40
2022-09-26T09:55:21.268Z,8.50
2022-09-26T09:56:21.232Z,8.60
2022-09-26T09:57:21.225Z,8.10
2022-09-26T09:58:21.216Z,7.40
2022-09-26T09:59:21.221Z,7.80
2022-09-26T10:00:21.225Z,7.70
2022-09-26T10:01:21.213Z,7.60
2022-09-26T10:02:21.223Z,7.70
2022-09-26T10:03:21.233Z,7.50
2022-09-26T10:04:21.177Z,7.20
2022-09-26T10:05:21.206Z,7.10
2022-09-26T10:06:43.991Z,6.50
2022-09-26T10:07:22.111Z,7.90
2022-09-26T10:08:21.122Z,8.50
2022-09-26T10:09:38.694Z,9.00
2022-09-26T10:10:22.106Z,8.30
2022-09-26T10:11:21.069Z,7.60
2022-09-26T10:12:21.065Z,7.30
2022-09-26T10:13:21.042Z,6.70
2022-09-26T10:14:21.026Z,7.30
2022-09-26T10:15:21.059Z,7.10
2022-09-26T10:16:21.085Z,7.70
2022-09-26T10:17:21.011Z,7.30
2022-09-26T10:18:26.017Z,6.50
2022-09-26T10:19:21.997Z,6.30
2022-09-26T10:20:20.989Z,6.60
2022-09-26T10:21:20.971Z,6.20
2022-09-26T10:22:20.941Z,6.30
2022-09-26T10:23:20.930Z,5.90
2022-09-26T10:24:20.931Z,6.10
2022-09-26T10:25:20.937Z,6.00
2022-09-26T10:26:20.904Z,6.00
2022-09-26T10:27:20.887Z,5.80
2022-09-26T10:28:20.882Z,6.30
2022-09-26T10:29:20.896Z,6.40
2022-09-26T10:30:20.923Z,6.70
2022-09-26T10:31:20.881Z,6.50
2022-09-26T10:32:20.828Z,6.00
2022-09-26T10:33:20.843Z,6.90
2022-09-26T10:34:20.813Z,6.20
2022-09-26T10:35:20.842Z,6.20
2022-09-26T10:36:20.790Z,7.40
2022-09-26T10:37:20.788Z,7.50
2022-09-26T10:38:20.760Z,7.60
2022-09-26T10:39:20.779Z,6.90
2022-09-26T10:40:20.804Z,7.70
2022-09-26T10:41:20.738Z,6.70
2022-09-26T10:42:20.718Z,6.20
2022-09-26T10:43:20.714Z,6.70
2022-09-26T10:44:20.699Z,6.90
2022-09-26T10:45:20.773Z,7.30
2022-09-26T10:46:20.735Z,7.50
2022-09-26T10:47:20.705Z,7.60
2022-09-26T10:48:20.670Z,8.60
2022-09-26T10:49:20.648Z,8.00
2022-09-26T10:50:20.662Z,8.40
2022-09-26T10:51:20.609Z,8.80
2022-09-26T10:52:20.604Z,8.10
2022-09-26T10:53:20.607Z,7.80
2022-09-26T10:54:20.604Z,7.10
2022-09-26T10:55:20.625Z,7.60
2022-09-26T10:56:20.574Z,6.90
2022-09-26T10:57:20.578Z,7.30
2022-09-26T10:58:20.539Z,7.10
2022-09-26T10:59:20.542Z,7.90
2022-09-26T11:00:20.560Z,7.70
2022-09-26T11:01:20.532Z,8.40
2022-09-26T11:02:20.504Z,7.40
2022-09-26T11:03:20.585Z,8.10
2022-09-26T11:04:20.502Z,8.70
2022-09-26T11:05:20.540Z,8.10
2022-09-26T11:06:23.759Z,7.00
2022-09-26T11:07:20.465Z,6.10
2022-09-26T11:08:20.422Z,6.30
2022-09-26T11:09:20.467Z,6.20
2022-09-26T11:10:20.485Z,5.90
2022-09-26T11:11:20.407Z,5.90
2022-09-26T11:12:20.402Z,6.00
2022-09-26T11:13:20.375Z,6.20
2022-09-26T11:14:22.185Z,6.20
2022-09-26T11:15:20.426Z,6.40
2022-09-26T11:16:20.609Z,6.00
2022-09-26T11:17:20.316Z,5.80
2022-09-26T11:18:20.333Z,6.00
2022-09-26T11:19:20.743Z,6.40
2022-09-26T11:20:20.331Z,6.20
2022-09-26T11:21:28.822Z,6.40
2022-09-26T11:22:21.270Z,6.30
2022-09-26T11:23:20.273Z,6.50
2022-09-26T11:24:20.251Z,6.20
2022-09-26T11:25:20.286Z,6.50
2022-09-26T11:26:20.221Z,6.20
2022-09-26T11:27:20.239Z,6.30
2022-09-26T11:28:20.222Z,6.20
2022-09-26T11:29:20.236Z,6.10
2022-09-26T11:30:20.189Z,6.10
2022-09-26T11:31:20.424Z,6.30
2022-09-26T11:32:20.163Z,6.30
2022-09-26T11:33:20.179Z,6.10
2022-09-26T11:34:20.166Z,6.00
2022-09-26T11:35:20.170Z,6.30
2022-09-26T11:36:20.136Z,6.20
2022-09-26T11:37:20.113Z,5.90
2022-09-26T11:38:20.111Z,6.10
2022-09-26T11:39:20.087Z,6.00
2022-09-26T11:40:20.205Z,5.90
2022-09-26T11:41:20.079Z,6.10
2022-09-26T11:42:20.094Z,5.90
2022-09-26T11:43:20.062Z,6.20
2022-09-26T11:44:20.036Z,6.30
2022-09-26T11:45:20.057Z,5.70
2022-09-26T11:46:20.067Z,5.90
2022-09-26T11:47:20.013Z,6.20
2022-09-26T11:48:20.004Z,6.30
2022-09-26T11:49:19.988Z,6.70
2022-09-26T11:50:20.005Z,6.70
2022-09-26T11:51:19.959Z,6.50
2022-09-26T11:52:19.936Z,6.70
2022-09-26T11:53:19.923Z,6.60
2022-09-26T11:54:19.931Z,7.30
2022-09-26T11:55:19.972Z,7.40
2022-09-26T11:56:19.907Z,7.80
2022-09-26T11:57:19.905Z,9.50
2022-09-26T11:58:19.884Z,8.80
2022-09-26T11:59:19.873Z,9.40
2022-09-26T12:00:19.889Z,9.60
2022-09-26T12:01:19.847Z,10.20
2022-09-26T12:02:19.945Z,9.10
2022-09-26T12:03:20.043Z,7.90
2022-09-26T12:04:19.861Z,7.70
2022-09-26T12:05:22.437Z,8.90
2022-09-26T12:06:20.799Z,8.80
2022-09-26T12:07:19.762Z,8.60
2022-09-26T12:08:19.772Z,8.70
2022-09-26T12:09:19.774Z,8.90
2022-09-26T12:10:19.803Z,9.00
2022-09-26T12:11:19.747Z,9.50
2022-09-26T12:12:19.730Z,10.80
2022-09-26T12:13:19.713Z,12.50
2022-09-26T12:14:19.726Z,13.70
2022-09-26T12:15:19.769Z,14.10
2022-09-26T12:16:19.774Z,16.80
2022-09-26T12:17:19.674Z,22.20
2022-09-26T12:18:19.650Z,25.80
2022-09-26T12:19:19.644Z,21.60
2022-09-26T12:20:19.673Z,18.10
2022-09-26T12:21:19.633Z,19.50
2022-09-26T12:22:19.603Z,18.50
2022-09-26T12:23:19.586Z,15.00
2022-09-26T12:24:19.572Z,16.20
2022-09-26T12:25:20.491Z,18.20
2022-09-26T12:26:19.679Z,19.90
2022-09-26T12:27:19.573Z,19.90
2022-09-26T12:28:19.537Z,23.20
2022-09-26T12:29:19.555Z,23.20
2022-09-26T12:30:19.573Z,22.10
2022-09-26T12:31:20.039Z,29.70
2022-09-26T12:32:19.515Z,21.10
2022-09-26T12:33:19.498Z,17.60
2022-09-26T12:34:19.488Z,15.20
2022-09-26T12:35:19.509Z,12.40
2022-09-26T12:36:19.477Z,12.10
2022-09-26T12:37:19.465Z,11.30
2022-09-26T12:38:19.440Z,10.90
2022-09-26T12:39:19.418Z,11.10
2022-09-26T12:40:19.525Z,11.10
2022-09-26T12:41:19.405Z,13.30
2022-09-26T12:42:19.399Z,12.30